Ramona (236) Station Data

Red Flag Warning: No
Fire Weather Zone: 250
SDGE Region: Ramona
Lat/Lon: 33.073/-116.858

Observations

Time Wind Speed/Gust Temp(F) RH Fuel Moist Fuel Temp(F) Dewpt(F) Tmax(F) Tmin(F) Accum Precip 10-min Precip SL Press(mb)
5/24 8:30am 243 2 G 3 64° 97% - - 63° 64.8° 53.3° - - -
5/24 8:20am 43 3 G 5 62° 100% - - 62° 62.7° 53.3° - - -
5/24 8:10am 328 3 G 6 60° 100% - - 60° 61.3° 53.3° - - -
5/24 8:00am 340 6 G 9 59° 100% - - 59° 61.3° 53.3° - - -
5/24 7:50am 323 4 G 7 59° 100% - - 59° 61.3° 53.3° - - -
5/24 7:40am 353 4 G 7 57° 100% - - 57° 61.3° 53.3° - - -
5/24 7:30am 355 2 G 4 56° 100% - - 56° 61.3° 53.3° - - -
5/24 7:20am 337 2 G 4 56° 100% - - 56° 61.3° 53.3° - - -
5/24 7:10am 272 3 G 8 57° 100% - - 57° 61.3° 53.3° - - -
5/24 7:00am 312 2 G 7 58° 100% - - 58° 61.3° 53.3° - - -
5/24 6:50am 230 2 G 5 57° 100% - - 57° 61.3° 53.3° - - -
5/24 6:40am 195 3 G 7 57° 100% - - 57° 61.3° 53.3° - - -
5/24 6:30am 83 1 G 3 55° 100% - - 55° 61.3° 53.3° - - -
5/24 6:20am 207 1 G 3 54° 100% - - 54° 61.3° 53.3° - - -
5/24 6:10am 327 1 G 2 54° 100% - - 54° 61.3° 53.3° - - -
5/24 6:00am 97 1 G 2 54° 100% - - 54° 61.3° 53.3° - - -
5/24 5:50am 157 2 G 4 54° 100% - - 54° 61.3° 53.3° - - -
5/24 5:40am 302 2 G 4 56° 100% - - 56° 61.3° 53.5° - - -
5/24 5:30am 315 2 G 5 55° 100% - - 55° 61.3° 53.5° - - -
5/24 5:20am 329 4 G 5 55° 100% - - 55° 61.3° 53.5° - - -
5/24 5:10am 324 3 G 4 55° 100% - - 55° 61.3° 53.5° - - -
5/24 5:00am 27 2 G 3 55° 100% - - 55° 61.3° 53.5° - - -
5/24 4:50am 359 1 G 3 54° 100% - - 54° 61.3° 53.5° - - -
5/24 4:40am 15 1 G 2 55° 100% - - 55° 61.3° 53.5° - - -
5/24 4:30am 30 0 G 1 54° 100% - - 54° 61.3° 53.5° - - -
5/24 4:20am 320 0 G 1 54° 100% - - 54° 61.3° 53.5° - - -
5/24 4:10am 334 0 G 1 54° 100% - - 54° 61.3° 53.8° - - -
5/24 4:00am 114 0 G 1 55° 100% - - 55° 61.3° 54.1° - - -
5/24 3:50am 77 0 G 1 55° 100% - - 55° 61.3° 54.5° - - -
5/24 3:40am 22 1 G 2 55° 100% - - 55° 61.3° 55.2° - - -
5/24 3:30am 11 0 G 1 56° 100% - - 56° 61.3° 55.2° - - -
5/24 3:20am 327 1 G 2 56° 100% - - 56° 61.3° 55.2° - - -
5/24 3:10am 327 2 G 4 56° 100% - - 56° 61.3° 55.2° - - -
5/24 3:00am 336 1 G 3 56° 100% - - 56° 61.3° 55.3° - - -
5/24 2:50am 16 1 G 2 56° 100% - - 56° 61.3° 55.3° - - -
5/24 2:40am 0 0 G 0 56° 100% - - 56° 61.3° 55.3° - - -
5/24 2:30am 334 0 G 1 56° 100% - - 56° 61.3° 55.9° - - -
5/24 2:20am 334 0 G 2 57° 100% - - 57° 61.3° 56° - - -
5/24 2:10am 342 1 G 2 57° 100% - - 57° 61.3° 56.9° - - -
5/24 2:00am 65 1 G 3 58° 100% - - 58° 61.3° 56.9° - - -
5/24 1:50am 95 1 G 2 57° 100% - - 57° 61.3° 56.9° - - -
5/24 1:40am 212 1 G 2 58° 99% - - 58° 61.3° 57.2° - - -
5/24 1:30am 186 2 G 3 60° 92% - - 57° 61.3° 58.5° - - -
5/24 1:20am 334 1 G 3 59° 98% - - 59° 61.3° 58.6° - - -
5/24 1:10am 316 2 G 3 59° 85% - - 55° 61.3° 58.7° - - -
5/24 1:00am 328 2 G 3 60° 81% - - 54° 61.3° 58.9° - - -
5/24 12:50am 341 2 G 3 60° 76% - - 53° 61.3° 58.9° - - -
5/24 12:40am 39 2 G 4 60° 86% - - 56° 61.2° 58.9° - - -
5/24 12:30am 0 0 G 0 59° 81% - - 53° 59.7° 58.9° - - -
5/24 12:20am 346 1 G 1 59° 80% - - 53° 59.7° 59° - - -
5/24 12:10am 334 0 G 1 59° 76% - - 52° 59.7° 59° - - -
5/24 12:00am 0 0 G 0 60° 73% - - 51° 91.2° 55° - - -
5/23 11:50pm 333 0 G 2 60° 72% - - 51° 91.2° 55° - - -
5/23 11:40pm 328 0 G 2 61° 69% - - 51° 91.2° 55° - - -
5/23 11:30pm 342 1 G 3 62° 66% - - 51° 91.2° 55° - - -
5/23 11:20pm 357 2 G 3 63° 67% - - 52° 91.2° 55° - - -
5/23 11:10pm 351 1 G 2 62° 68% - - 51° 91.2° 55° - - -
5/23 11:00pm 39 0 G 1 62° 66% - - 51° 91.2° 55° - - -
5/23 10:50pm 94 0 G 1 63° 67% - - 52° 91.2° 55° - - -
5/23 10:40pm 94 1 G 2 63° 64% - - 51° 91.2° 55° - - -
5/23 10:30pm 82 0 G 2 64° 63% - - 51° 91.2° 55° - - -
5/23 10:20pm 336 1 G 2 65° 62% - - 51° 91.2° 55° - - -
5/23 10:10pm 325 1 G 3 65° 60% - - 51° 91.2° 55° - - -
5/23 10:00pm 350 3 G 4 66° 60% - - 51° 91.2° 55° - - -
5/23 9:50pm 344 3 G 4 66° 61% - - 52° 91.2° 55° - - -
5/23 9:40pm 18 2 G 3 66° 62% - - 52° 91.2° 55° - - -
5/23 9:30pm 16 1 G 3 66° 60% - - 52° 91.2° 55° - - -
5/23 9:20pm 47 1 G 2 67° 59% - - 52° 91.2° 55° - - -
5/23 9:10pm 108 0 G 1 67° 59% - - 52° 91.2° 55° - - -
5/23 9:00pm 73 2 G 3 68° 57% - - 52° 91.2° 55° - - -
5/23 8:50pm 67 3 G 3 69° 55% - - 52° 91.2° 55° - - -
5/23 8:40pm 53 1 G 3 69° 54% - - 52° 91.2° 55° - - -
5/23 8:30pm 16 0 G 1 70° 53% - - 52° 91.2° 55° - - -
5/23 8:20pm 7 1 G 2 70° 51% - - 52° 91.2° 55° - - -
5/23 8:10pm 230 1 G 2 71° 51% - - 52° 91.2° 55° - - -
5/23 8:00pm 321 3 G 5 72° 49% - - 51° 91.2° 55° - - -
5/23 7:50pm 300 2 G 5 72° 48% - - 52° 91.2° 55° - - -
5/23 7:40pm 270 2 G 3 73° 47% - - 51° 91.2° 55° - - -
5/23 7:30pm 275 3 G 4 74° 44% - - 51° 91.2° 55° - - -
5/23 7:20pm 258 3 G 5 75° 43% - - 51° 91.2° 55° - - -
5/23 7:10pm 298 3 G 5 76° 41% - - 51° 91.2° 55° - - -
5/23 7:00pm 283 3 G 8 77° 38% - - 50° 91.2° 55° - - -
5/23 6:50pm 282 3 G 7 78° 36% - - 49° 91.2° 55° - - -
5/23 6:40pm 282 5 G 9 78° 34% - - 48° 91.2° 55° - - -
5/23 6:30pm 284 5 G 10 79° 34% - - 48° 91.2° 55° - - -
5/23 6:20pm 294 6 G 11 81° 32% - - 48° 91.2° 55° - - -
5/23 6:10pm 275 5 G 9 83° 27% - - 46° 91.2° 55° - - -
5/23 6:00pm 278 5 G 8 84° 27% - - 46° 91.2° 55° - - -
5/23 5:50pm 262 5 G 9 84° 27% - - 47° 91.2° 55° - - -
5/23 5:40pm 257 5 G 10 85° 28% - - 48° 91.2° 55° - - -
5/23 5:30pm 269 4 G 8 85° 29% - - 49° 91.2° 55° - - -
5/23 5:20pm 282 4 G 7 85° 28% - - 48° 91.2° 55° - - -
5/23 5:10pm 262 3 G 8 85° 28% - - 49° 91.2° 55° - - -
5/23 5:00pm 268 4 G 9 85° 29% - - 49° 91.2° 55° - - -
5/23 4:50pm 247 4 G 7 84° 29% - - 48° 91.2° 55° - - -
5/23 4:40pm 266 4 G 7 85° 28% - - 48° 91.2° 55° - - -
5/23 4:30pm 246 3 G 10 84° 27% - - 47° 91.2° 55° - - -
5/23 4:20pm 283 3 G 8 84° 28% - - 47° 91.2° 55° - - -
5/23 4:10pm 274 5 G 9 83° 28% - - 46° 91.2° 55° - - -
5/23 4:00pm 249 4 G 9 83° 28% - - 47° 91.2° 55° - - -
5/23 3:50pm 269 5 G 8 82° 30% - - 47° 91.2° 55° - - -
5/23 3:40pm 258 5 G 10 82° 31% - - 48° 91.2° 55° - - -
5/23 3:30pm 257 5 G 9 81° 31% - - 47° 91.2° 55° - - -
5/23 3:20pm 257 4 G 8 81° 33% - - 49° 91.2° 55° - - -
5/23 3:10pm 237 4 G 9 81° 35% - - 50° 91.2° 55° - - -
5/23 3:00pm 271 5 G 10 80° 37% - - 52° 91.2° 55° - - -
5/23 2:50pm 276 6 G 11 79° 39% - - 52° 91.2° 55° - - -
5/23 2:40pm 277 7 G 12 79° 40% - - 53° 91.2° 55° - - -
5/23 2:30pm 279 7 G 12 79° 41% - - 53° 91.2° 55° - - -
5/23 2:20pm 271 7 G 13 78° 42% - - 53° 91.2° 55° - - -
5/23 2:10pm 284 7 G 14 78° 42% - - 54° 91.2° 55° - - -
5/23 2:00pm 279 6 G 10 78° 42% - - 54° 91.2° 55° - - -
5/23 1:50pm 283 7 G 11 78° 44% - - 54° 91.2° 55° - - -
5/23 1:40pm 299 7 G 10 78° 43% - - 54° 91.2° 55° - - -
5/23 1:30pm 276 6 G 11 79° 42% - - 54° 91.2° 55° - - -
5/23 1:20pm 270 6 G 11 78° 43% - - 54° 91.2° 55° - - -
5/23 1:10pm 280 7 G 12 78° 44% - - 54° 91.2° 55° - - -
5/23 1:00pm 287 7 G 13 78° 44% - - 54° 91.2° 55° - - -
5/23 12:50pm 293 8 G 16 79° 41% - - 53° 91.2° 55° - - -
5/23 12:40pm 295 8 G 15 80° 39% - - 53° 91.2° 55° - - -
5/23 12:30pm 294 9 G 17 81° 37% - - 52° 91.2° 55° - - -
5/23 12:20pm 284 8 G 15 84° 28% - - 48° 91.2° 55° - - -
5/23 12:10pm 280 7 G 12 85° 23% - - 44° 91.2° 55° - - -
5/23 12:00pm 284 7 G 12 87° 21% - - 42° 91.2° 55° - - -
5/23 11:50am 274 6 G 11 87° 22% - - 43° 91.2° 55° - - -
5/23 11:40am 279 7 G 13 88° 20% - - 42° 91.2° 55° - - -
5/23 11:30am 268 5 G 12 90° 16% - - 38° 91.2° 55° - - -
5/23 11:20am 218 4 G 7 90° 14% - - 33° 91° 55° - - -
5/23 11:10am 165 3 G 6 89° 14% - - 33° 90.2° 55° - - -
5/23 11:00am 106 2 G 7 89° 14% - - 33° 90.2° 55° - - -
5/23 10:50am 241 2 G 4 90° 13% - - 33° 90.2° 55° - - -
5/23 10:40am 228 1 G 3 89° 13% - - 32° 89.9° 55° - - -
5/23 10:30am 221 1 G 3 87° 13% - - 31° 87.8° 55° - - -
5/23 10:20am 208 1 G 2 87° 13% - - 31° 87.1° 55° - - -
5/23 10:10am 271 1 G 2 87° 14% - - 32° 87.1° 55° - - -
5/23 10:00am 88 1 G 3 84° 16% - - 32° 85.6° 55° - - -
5/23 9:50am 93 2 G 4 83° 17% - - 34° 83.6° 55° - - -
5/23 9:40am 92 1 G 4 83° 19% - - 37° 83.5° 55° - - -
5/23 9:30am 207 1 G 3 81° 20% - - 36° 81.1° 55° - - -
5/23 9:20am 215 2 G 4 80° 23% - - 39° 81° 55° - - -
5/23 9:10am 209 2 G 4 80° 25% - - 41° 80.1° 55° - - -
5/23 9:00am 152 1 G 3 79° 26% - - 41° 80° 55° - - -
5/23 8:50am 224 1 G 2 78° 27% - - 41° 79.4° 55° - - -
5/23 8:40am 146 1 G 2 75° 28% - - 40° 76° 55° - - -
5/23 8:30am 112 1 G 3 74° 32% - - 42° 74.5° 55° - - -
5/23 8:20am 241 0 G 1 72° 39% - - 46° 73.2° 55° - - -
5/23 8:10am 189 0 G 2 70° 43% - - 47° 71° 55° - - -
5/23 8:00am 0 0 G 0 69° 49% - - 49° 69.2° 55° - - -
5/23 7:50am 79 1 G 1 67° 52% - - 49° 67.9° 55° - - -
5/23 7:40am 92 1 G 2 67° 53% - - 49° 67.5° 55° - - -
5/23 7:30am 116 1 G 1 66° 55% - - 49° 66.4° 55° - - -
5/23 7:20am 173 1 G 2 65° 56% - - 49° 65.2° 55° - - -
5/23 7:10am 124 1 G 1 63° 59% - - 49° 64.4° 55° - - -
5/23 7:00am 82 0 G 0 62° 63% - - 49° 62.8° 55° - - -
5/23 6:50am 71 0 G 2 60° 66% - - 48° 61° 55° - - -
5/23 6:40am 346 0 G 1 58° 72% - - 49° 61° 55° - - -
5/23 6:30am 345 0 G 1 57° 77% - - 49° 61° 55° - - -
5/23 6:20am 334 1 G 2 56° 78% - - 49° 61° 55° - - -
5/23 6:10am 348 1 G 2 55° 81% - - 50° 61° 55° - - -
5/23 6:00am 328 1 G 2 55° 79% - - 49° 61° 55° - - -